Time;durP1;ratioP1;P1;durP2;ratioP2;P2;SDS_P1;SDS_P2;PMS_P1;PMS_P2;Temp;Humidity;BMP_temperature;BMP_pressure;BME280_temperature;BME280_humidity;BME280_pressure;Samples;Min_cycle;Max_cycle;Signal;HPM_P1;HPM_P2
2024/04/21 07:14:40;;;;;;;5.13;0.95;;;9.20;99.90;;;;;;6527558;22;20114;-87
2024/04/21 07:17:24;;;;;;;4.30;1.10;;;8.60;99.90;;;;;;6489289;22;20007;-85
2024/04/21 07:35:23;;;;;;;5.07;1.98;;;7.40;99.90;;;;;;6529542;22;20447;-89
2024/04/21 07:42:32;;;;;;;5.65;1.52;;;7.40;99.90;;;;;;6421479;22;20027;-86
2024/04/21 07:44:58;;;;;;;5.80;1.45;;;7.20;99.90;;;;;;6318649;22;20072;-84
2024/04/21 08:26:03;;;;;;;3.85;0.95;;;9.00;99.90;;;;;;6421058;22;20035;-86
2024/04/21 08:29:14;;;;;;;2.30;0.80;;;9.60;99.90;;;;;;6415814;22;20015;-85
2024/04/21 08:34:43;;;;;;;3.22;0.80;;;9.60;99.90;;;;;;6447409;21;20020;-83
2024/04/21 08:37:23;;;;;;;;;;;9.40;99.90;;;;;;6388454;22;20324;-85
2024/04/21 08:44:13;;;;;;;2.85;1.00;;;9.70;99.90;;;;;;6469961;22;20072;-84
2024/04/21 08:46:42;;;;;;;2.92;0.68;;;10.20;99.90;;;;;;6423164;22;20014;-83
2024/04/21 08:49:08;;;;;;;1.40;0.50;;;10.30;99.90;;;;;;6423299;22;20758;-83
2024/04/21 09:03:37;;;;;;;1.42;0.88;;;10.40;99.90;;;;;;6488064;22;20047;-85
2024/04/21 10:27:31;;;;;;;0.90;0.70;;;10.40;99.90;;;;;;6478973;22;20057;-89
2024/04/21 10:41:21;;;;;;;1.67;0.80;;;10.30;99.90;;;;;;6270835;22;20072;-87
2024/04/21 11:25:47;;;;;;;2.78;0.70;;;10.10;99.90;;;;;;6472141;22;20073;-85
2024/04/21 11:29:28;;;;;;;3.70;0.75;;;10.30;99.90;;;;;;6417652;22;20009;-85
2024/04/21 19:04:36;;;;;;;1.90;1.08;;;7.40;99.90;;;;;;6521837;22;20083;-86
2024/04/21 19:19:45;;;;;;;4.80;1.67;;;7.10;99.90;;;;;;6177974;23;20141;-85
2024/04/21 20:18:43;;;;;;;2.25;1.65;;;6.30;99.90;;;;;;6421294;22;20540;-64
2024/04/21 20:21:09;;;;;;;2.72;1.15;;;6.30;99.90;;;;;;6377342;22;19998;-64
2024/04/21 20:23:36;;;;;;;3.08;1.33;;;6.30;99.90;;;;;;6419277;22;20009;-65
2024/04/21 20:26:04;;;;;;;3.28;1.40;;;6.30;99.90;;;;;;6421349;22;20018;-64
2024/04/21 20:28:30;;;;;;;3.67;1.45;;;6.40;99.90;;;;;;6419764;22;20451;-65
2024/04/21 20:30:56;;;;;;;3.50;1.33;;;6.40;99.90;;;;;;6376267;22;20286;-65
2024/04/21 20:33:23;;;;;;;2.45;1.17;;;6.40;99.90;;;;;;6420487;22;20006;-65
2024/04/21 20:35:49;;;;;;;3.40;1.40;;;6.40;99.90;;;;;;6420422;22;20453;-65
2024/04/21 20:38:15;;;;;;;4.55;1.40;;;6.30;99.90;;;;;;6419549;22;20010;-65
2024/04/21 20:40:40;;;;;;;4.07;1.08;;;6.30;99.90;;;;;;6376273;22;20309;-65
2024/04/21 20:43:06;;;;;;;3.83;1.58;;;6.30;99.90;;;;;;6419797;22;20014;-65
2024/04/21 20:45:32;;;;;;;4.85;1.30;;;6.30;99.90;;;;;;6419607;22;20341;-65
2024/04/21 20:47:57;;;;;;;2.05;1.33;;;6.30;99.90;;;;;;6419226;22;20018;-65
2024/04/21 20:50:23;;;;;;;3.63;1.77;;;6.30;99.90;;;;;;6419296;22;20405;-65
2024/04/21 20:52:49;;;;;;;3.40;1.23;;;6.30;99.90;;;;;;6419006;22;20013;-65
2024/04/21 20:55:14;;;;;;;2.40;0.82;;;6.20;99.90;;;;;;6419738;22;20009;-64
2024/04/21 20:57:40;;;;;;;2.60;0.75;;;6.30;99.90;;;;;;6419242;22;20038;-65
2024/04/21 21:00:07;;;;;;;2.65;1.23;;;6.30;99.90;;;;;;6419454;22;20011;-65
2024/04/21 21:02:32;;;;;;;2.35;0.70;;;6.30;99.90;;;;;;6419610;22;20012;-65
2024/04/21 21:04:58;;;;;;;1.05;0.65;;;6.40;99.90;;;;;;6420729;22;20002;-65
2024/04/21 21:07:24;;;;;;;1.42;0.50;;;6.30;99.90;;;;;;6420874;22;20314;-65
2024/04/21 21:09:49;;;;;;;1.58;0.70;;;6.30;99.90;;;;;;6420423;22;20016;-65
2024/04/21 21:12:15;;;;;;;2.10;0.80;;;6.30;99.90;;;;;;6375602;22;20013;-65
2024/04/21 21:14:41;;;;;;;1.08;0.45;;;6.30;99.90;;;;;;6419573;22;20003;-65
2024/04/21 21:17:07;;;;;;;0.75;0.40;;;6.30;99.90;;;;;;6438733;22;20459;-65
2024/04/21 21:19:34;;;;;;;2.60;0.60;;;6.30;99.90;;;;;;6470514;22;20076;-65
2024/04/21 21:22:01;;;;;;;2.35;0.60;;;6.30;99.90;;;;;;6471809;22;20046;-65
2024/04/21 21:24:27;;;;;;;2.50;0.68;;;6.30;99.90;;;;;;6472796;22;20005;-65
2024/04/21 21:26:53;;;;;;;1.65;0.75;;;6.20;99.90;;;;;;6427505;22;20012;-65
2024/04/21 21:29:19;;;;;;;1.83;0.47;;;6.30;99.90;;;;;;6471137;22;19998;-65
2024/04/21 21:31:45;;;;;;;1.20;0.35;;;6.30;99.90;;;;;;6470318;22;20002;-65
2024/04/21 21:34:10;;;;;;;1.10;0.57;;;6.20;99.90;;;;;;6470645;22;19998;-65
2024/04/21 21:36:36;;;;;;;1.83;0.30;;;6.30;99.90;;;;;;6473924;22;20006;-65
2024/04/21 21:39:03;;;;;;;1.05;0.50;;;6.30;99.90;;;;;;6472396;22;20100;-65
2024/04/21 21:41:32;;;;;;;0.90;0.45;;;6.30;99.90;;;;;;6471441;22;20037;-65
2024/04/21 21:43:57;;;;;;;0.85;0.50;;;6.30;99.90;;;;;;6471639;22;20013;-65
2024/04/21 21:46:23;;;;;;;1.13;0.50;;;6.30;99.90;;;;;;6473041;22;20002;-65
2024/04/21 21:48:49;;;;;;;2.13;0.73;;;6.30;99.90;;;;;;6472395;22;20425;-65
2024/04/21 21:51:15;;;;;;;2.40;1.25;;;6.30;99.90;;;;;;6472457;22;19998;-65
2024/04/21 21:53:41;;;;;;;2.42;0.43;;;6.30;99.90;;;;;;6429214;22;20028;-65
2024/04/21 21:56:09;;;;;;;1.25;0.68;;;6.30;99.90;;;;;;6471921;22;20002;-65
2024/04/21 21:58:36;;;;;;;1.20;0.50;;;6.30;99.90;;;;;;6471841;22;20330;-65
2024/04/21 22:01:02;;;;;;;1.85;0.30;;;6.30;99.90;;;;;;6471971;22;19998;-64
2024/04/21 22:03:28;;;;;;;1.27;0.60;;;6.40;99.90;;;;;;6472143;22;20054;-65
2024/04/21 22:05:54;;;;;;;1.92;0.50;;;6.30;99.90;;;;;;6473290;22;20317;-64
2024/04/21 22:08:20;;;;;;;0.80;0.47;;;6.40;99.90;;;;;;6472015;22;20020;-64
2024/04/21 22:10:50;;;;;;;2.33;0.60;;;6.30;99.90;;;;;;6470780;22;20045;-65
2024/04/21 22:13:16;;;;;;;4.80;0.77;;;6.40;99.90;;;;;;6473084;22;20413;-65
2024/04/21 22:15:45;;;;;;;1.92;0.38;;;6.40;99.90;;;;;;6470813;22;20002;-65
2024/04/21 22:18:11;;;;;;;1.77;0.65;;;6.50;99.90;;;;;;6472169;22;20289;-65
2024/04/21 22:20:37;;;;;;;3.13;0.68;;;6.50;99.90;;;;;;6473846;22;20026;-65
2024/04/21 22:23:04;;;;;;;2.05;0.50;;;6.50;99.90;;;;;;6472234;22;20096;-65
2024/04/21 22:25:29;;;;;;;1.52;0.40;;;6.50;99.90;;;;;;6472610;22;20336;-65
2024/04/21 22:27:55;;;;;;;2.33;0.40;;;6.50;99.90;;;;;;6470648;22;20049;-65
2024/04/21 22:30:21;;;;;;;1.65;0.45;;;6.50;99.90;;;;;;6465775;22;20002;-65
2024/04/21 22:32:47;;;;;;;1.05;0.38;;;6.50;99.90;;;;;;6472573;22;20279;-64
2024/04/21 22:35:14;;;;;;;1.83;0.52;;;6.50;99.90;;;;;;6471510;22;20002;-65
2024/04/21 22:37:40;;;;;;;1.05;0.60;;;6.50;99.90;;;;;;6472187;22;20572;-65
2024/04/21 22:40:06;;;;;;;2.15;0.70;;;6.50;99.90;;;;;;6471752;22;20002;-64
2024/04/21 22:42:32;;;;;;;0.77;0.47;;;6.40;99.90;;;;;;6472975;22;20002;-65
2024/04/21 22:44:58;;;;;;;1.85;0.40;;;6.30;99.90;;;;;;6473857;22;20044;-65
2024/04/21 22:47:23;;;;;;;1.85;0.40;;;6.30;99.90;;;;;;6473695;22;20005;-65
2024/04/21 22:49:52;;;;;;;1.83;0.47;;;6.20;99.90;;;;;;6471547;22;20344;-65
2024/04/21 22:52:22;;;;;;;2.88;0.50;;;6.20;99.90;;;;;;6473542;22;20021;-64
2024/04/21 22:54:48;;;;;;;2.38;0.40;;;6.20;99.90;;;;;;6471275;22;20637;-65
2024/04/21 22:57:14;;;;;;;1.00;0.60;;;6.10;99.90;;;;;;6473671;22;20002;-65
2024/04/21 22:59:40;;;;;;;1.60;0.60;;;6.10;99.90;;;;;;6466681;22;20002;-64
2024/04/21 23:02:06;;;;;;;0.80;0.50;;;6.10;99.90;;;;;;6473722;22;20012;-64
2024/04/21 23:04:32;;;;;;;2.75;0.52;;;6.00;99.90;;;;;;6470188;22;19998;-65
2024/04/21 23:06:57;;;;;;;1.50;0.40;;;6.00;99.90;;;;;;6472250;22;20002;-65
2024/04/21 23:09:23;;;;;;;1.85;0.50;;;6.00;99.90;;;;;;6469993;22;20050;-65
2024/04/21 23:11:49;;;;;;;1.92;0.82;;;5.90;99.90;;;;;;6473408;22;20030;-65
2024/04/21 23:14:14;;;;;;;1.40;0.38;;;5.80;99.90;;;;;;6472963;22;20017;-65
2024/04/21 23:16:40;;;;;;;0.90;0.30;;;5.90;99.90;;;;;;6470757;22;20409;-64
2024/04/21 23:19:06;;;;;;;1.58;0.40;;;5.80;99.90;;;;;;6469927;22;20008;-65
2024/04/21 23:21:32;;;;;;;0.68;0.40;;;5.80;99.90;;;;;;6470442;22;20002;-65
2024/04/21 23:23:58;;;;;;;1.38;0.60;;;5.70;99.90;;;;;;6426217;22;20301;-64
2024/04/21 23:26:38;;;;;;;1.60;0.40;;;5.70;99.90;;;;;;6471799;22;20014;-65
2024/04/21 23:29:04;;;;;;;2.22;0.70;;;5.60;99.90;;;;;;6469194;22;20312;-64
2024/04/21 23:31:31;;;;;;;1.92;0.40;;;5.60;99.90;;;;;;6470387;22;20262;-65
2024/04/21 23:33:59;;;;;;;1.13;0.40;;;5.50;99.90;;;;;;6473080;22;20010;-65
2024/04/21 23:36:24;;;;;;;0.80;0.47;;;5.40;99.90;;;;;;6471147;22;20002;-65
2024/04/21 23:38:50;;;;;;;0.52;0.40;;;5.40;99.90;;;;;;6470129;22;20069;-64
2024/04/21 23:41:16;;;;;;;1.90;0.80;;;5.40;99.90;;;;;;6472193;22;20006;-65
2024/04/21 23:43:41;;;;;;;0.85;0.50;;;5.40;99.90;;;;;;6472279;22;20020;-65
2024/04/21 23:46:07;;;;;;;1.10;0.60;;;5.30;99.90;;;;;;6473485;22;20362;-64
2024/04/21 23:48:33;;;;;;;1.73;0.50;;;5.20;99.90;;;;;;6472426;22;20076;-64
2024/04/21 23:50:59;;;;;;;2.88;0.73;;;5.20;99.90;;;;;;6471399;22;20012;-64
2024/04/21 23:53:25;;;;;;;1.08;0.70;;;5.20;99.90;;;;;;6470829;22;20002;-64
2024/04/21 23:55:51;;;;;;;2.33;0.80;;;5.20;99.90;;;;;;6471559;22;19997;-65
2024/04/21 23:58:16;;;;;;;4.90;0.80;;;5.30;99.90;;;;;;6468882;22;20024;-65
